Time;durP1;ratioP1;P1;durP2;ratioP2;P2;SDS_P1;SDS_P2;PMS_P1;PMS_P2;Temp;Humidity;BMP_temperature;BMP_pressure;BME280_temperature;BME280_humidity;BME280_pressure;Samples;Min_cycle;Max_cycle;Signal;HPM_P1;HPM_P2
2023/10/09 00:00:36;;;;;;;13.98;8.55;;;10.70;99.90;;;;;;5056501;28;20344;-67
2023/10/09 00:03:01;;;;;;;14.80;8.07;;;10.70;99.90;;;;;;5055563;28;20033;-67
2023/10/09 00:05:38;;;;;;;14.50;8.07;;;10.70;99.90;;;;;;5056676;28;20033;-67
2023/10/09 00:08:04;;;;;;;17.77;8.82;;;10.60;99.90;;;;;;5056668;28;20363;-69
2023/10/09 00:10:45;;;;;;;13.20;7.85;;;10.60;99.90;;;;;;5056527;28;20036;-67
2023/10/09 00:13:10;;;;;;;13.45;7.63;;;10.60;99.90;;;;;;5056463;28;20028;-68
2023/10/09 00:15:36;;;;;;;16.73;8.30;;;10.50;99.90;;;;;;5056159;28;20513;-67
2023/10/09 00:18:04;;;;;;;14.77;8.13;;;10.50;99.90;;;;;;5056470;28;20020;-68
2023/10/09 00:20:30;;;;;;;14.45;8.25;;;10.50;99.90;;;;;;5056120;28;20029;-69
2023/10/09 00:22:56;;;;;;;18.65;9.98;;;10.60;99.90;;;;;;5056077;28;20036;-68
2023/10/09 00:25:24;;;;;;;18.35;9.60;;;10.60;99.90;;;;;;5056255;28;20029;-68
2023/10/09 00:27:49;;;;;;;18.90;9.20;;;10.60;99.90;;;;;;5055962;28;20024;-68
2023/10/09 00:30:18;;;;;;;19.35;11.07;;;10.70;99.90;;;;;;5055133;28;20101;-67
2023/10/09 00:33:00;;;;;;;22.58;11.45;;;10.70;99.90;;;;;;5055532;28;20116;-67
2023/10/09 00:36:06;;;;;;;24.77;12.30;;;10.70;99.90;;;;;;5055548;28;20025;-67
2023/10/09 00:38:22;;;;;;;27.40;13.13;;;10.90;99.90;;;;;;5054943;28;20060;-67
2023/10/09 00:41:24;;;;;;;26.27;12.63;;;11.10;99.90;;;;;;5055598;28;20025;-67
2023/10/09 00:43:36;;;;;;;24.50;12.40;;;11.00;99.90;;;;;;5054808;28;20028;-67
2023/10/09 00:46:08;;;;;;;21.80;11.25;;;11.10;99.90;;;;;;5055336;28;20029;-75
2023/10/09 00:48:39;;;;;;;26.27;12.32;;;11.10;99.90;;;;;;5055505;28;20352;-67
2023/10/09 00:51:15;;;;;;;24.70;11.57;;;11.10;99.90;;;;;;5055587;28;20078;-67
2023/10/09 00:53:42;;;;;;;22.45;11.75;;;11.10;99.90;;;;;;5055248;28;20153;-67
2023/10/09 00:56:18;;;;;;;31.50;14.77;;;11.10;99.90;;;;;;5055663;28;20017;-67
2023/10/09 00:58:46;;;;;;;26.83;12.75;;;11.10;99.90;;;;;;5055619;28;20111;-67
2023/10/09 01:01:16;;;;;;;30.58;14.30;;;11.00;99.90;;;;;;5055693;28;20104;-67
2023/10/09 01:03:43;;;;;;;28.92;14.13;;;11.10;99.90;;;;;;5055326;28;20036;-67
2023/10/09 01:08:56;;;;;;;36.40;18.08;;;11.20;99.90;;;;;;5091620;28;20445;-66
2023/10/09 01:11:22;;;;;;;42.40;18.55;;;11.20;99.90;;;;;;5091186;28;20086;-67
2023/10/09 01:16:31;;;;;;;38.28;19.20;;;11.40;99.90;;;;;;5091630;28;20743;-66
2023/10/09 01:18:57;;;;;;;49.17;21.45;;;11.50;99.90;;;;;;5091747;28;20045;-66
2023/10/09 01:21:25;;;;;;;61.38;25.60;;;11.60;99.90;;;;;;5091520;28;20024;-66
2023/10/09 01:24:43;;;;;;;58.00;25.95;;;11.90;99.90;;;;;;5091433;28;20027;-66
2023/10/09 01:26:44;;;;;;;54.85;23.70;;;12.20;99.90;;;;;;5090518;28;20078;-66
2023/10/09 01:29:14;;;;;;;57.17;26.00;;;12.30;99.90;;;;;;5091611;28;20040;-66
2023/10/09 01:31:46;;;;;;;60.92;25.98;;;12.30;99.90;;;;;;5091229;28;20032;-66
2023/10/09 01:34:12;;;;;;;58.40;26.63;;;12.50;99.90;;;;;;5090808;28;20111;-66
2023/10/09 01:36:39;;;;;;;53.90;24.00;;;12.50;99.90;;;;;;5091248;28;20111;-66
2023/10/09 01:39:21;;;;;;;57.30;24.45;;;12.50;99.90;;;;;;5090741;28;20073;-66
2023/10/09 01:41:49;;;;;;;49.10;22.23;;;12.50;99.90;;;;;;5091078;28;20132;-66
2023/10/09 01:44:16;;;;;;;47.63;21.27;;;12.40;99.90;;;;;;5091144;28;20154;-66
2023/10/09 01:46:42;;;;;;;56.15;24.52;;;12.40;99.90;;;;;;5090743;28;20119;-66
2023/10/09 01:49:10;;;;;;;55.38;24.70;;;12.40;99.90;;;;;;5091174;28;20028;-66
2023/10/09 01:51:38;;;;;;;57.38;25.55;;;12.50;99.90;;;;;;5090624;28;20030;-66
2023/10/09 01:54:04;;;;;;;64.50;26.80;;;12.50;99.90;;;;;;5091010;28;20028;-66
2023/10/09 01:56:29;;;;;;;53.22;26.45;;;12.60;99.90;;;;;;5089782;28;20032;-67
2023/10/09 01:58:57;;;;;;;57.25;26.23;;;12.60;99.90;;;;;;5091029;28;20032;-66
2023/10/09 02:01:23;;;;;;;56.88;27.05;;;12.70;99.90;;;;;;5090473;28;20103;-67
2023/10/09 02:03:51;;;;;;;59.10;27.48;;;12.70;99.90;;;;;;5090508;28;20359;-67
2023/10/09 02:06:24;;;;;;;64.22;27.92;;;12.90;99.90;;;;;;5090761;28;20025;-67
2023/10/09 02:08:53;;;;;;;47.67;25.80;;;12.90;99.90;;;;;;5090762;28;20450;-67
2023/10/09 02:11:51;;;;;;;63.13;28.30;;;12.90;99.90;;;;;;5090474;28;20132;-67
2023/10/09 02:14:15;;;;;;;56.45;27.75;;;12.90;99.90;;;;;;5089333;28;20020;-67
2023/10/09 02:16:41;;;;;;;55.60;27.73;;;13.00;99.90;;;;;;5090305;28;20111;-67
2023/10/09 02:19:28;;;;;;;57.60;27.45;;;13.00;99.90;;;;;;5090333;28;20055;-67
2023/10/09 02:21:53;;;;;;;64.25;28.77;;;13.00;99.90;;;;;;5089473;28;20419;-67
2023/10/09 02:24:42;;;;;;;65.70;30.77;;;13.10;99.90;;;;;;5089651;28;20035;-67
2023/10/09 02:27:07;;;;;;;66.25;31.48;;;13.30;99.90;;;;;;5080091;28;20027;-67
2023/10/09 02:29:35;;;;;;;68.43;31.85;;;13.30;99.90;;;;;;5076643;28;20462;-67
2023/10/09 02:32:13;;;;;;;67.82;31.55;;;13.40;99.90;;;;;;5076626;28;20111;-67
2023/10/09 02:34:39;;;;;;;67.63;31.02;;;13.50;99.90;;;;;;5076820;28;20028;-67
2023/10/09 02:37:06;;;;;;;67.93;31.95;;;13.60;99.90;;;;;;5076493;28;20086;-67
2023/10/09 02:39:40;;;;;;;63.95;33.05;;;13.70;99.90;;;;;;5076740;28;20025;-68
2023/10/09 02:44:51;;;;;;;68.88;33.95;;;13.90;99.90;;;;;;5144928;27;20406;-68
2023/10/09 02:47:30;;;;;;;67.30;34.45;;;13.90;99.90;;;;;;5111859;28;20081;-68
2023/10/09 02:50:11;;;;;;;62.85;31.27;;;14.00;99.90;;;;;;5111730;28;20047;-68
2023/10/09 02:52:40;;;;;;;62.70;31.90;;;13.90;99.90;;;;;;5111781;28;20023;-68
2023/10/09 02:55:13;;;;;;;60.72;31.63;;;14.00;99.90;;;;;;5111631;28;20508;-68
2023/10/09 02:57:41;;;;;;;69.53;33.75;;;14.00;99.90;;;;;;5111681;28;20031;-67
2023/10/09 03:00:09;;;;;;;65.80;34.40;;;14.00;99.90;;;;;;5111893;28;20020;-68
2023/10/09 03:02:39;;;;;;;74.43;34.30;;;14.20;99.90;;;;;;5110922;28;20016;-68
2023/10/09 03:05:06;;;;;;;63.22;32.75;;;14.30;99.90;;;;;;5111776;28;20045;-68
2023/10/09 03:07:34;;;;;;;60.83;31.95;;;14.30;99.90;;;;;;5111361;28;20062;-71
2023/10/09 03:09:59;;;;;;;62.25;30.02;;;14.30;99.90;;;;;;5111015;28;20504;-68
2023/10/09 03:12:27;;;;;;;59.38;29.92;;;14.40;99.90;;;;;;5111579;28;20047;-68
2023/10/09 03:15:02;;;;;;;48.83;27.17;;;14.40;99.90;;;;;;5110980;28;20494;-68
2023/10/09 03:17:27;;;;;;;51.17;28.17;;;14.30;99.90;;;;;;5111376;28;20020;-68
2023/10/09 03:19:53;;;;;;;55.97;28.15;;;14.30;99.90;;;;;;5111425;28;20496;-68
2023/10/09 03:22:19;;;;;;;60.78;29.20;;;14.30;99.90;;;;;;5111446;28;20027;-68
2023/10/09 03:24:44;;;;;;;51.67;27.88;;;14.30;99.90;;;;;;5110607;28;20032;-68
2023/10/09 03:27:11;;;;;;;55.67;29.13;;;14.40;99.90;;;;;;5110937;28;20026;-68
2023/10/09 03:29:37;;;;;;;54.20;27.17;;;14.40;99.90;;;;;;5110759;28;20484;-68
2023/10/09 03:32:03;;;;;;;48.95;26.38;;;14.40;99.90;;;;;;5111208;28;20103;-68
2023/10/09 03:34:30;;;;;;;49.72;27.38;;;14.40;99.90;;;;;;5110959;28;20049;-68
2023/10/09 03:37:03;;;;;;;50.58;26.00;;;14.60;99.90;;;;;;5111227;28;20031;-68
2023/10/09 03:39:34;;;;;;;51.15;28.05;;;14.30;99.90;;;;;;5110558;28;20130;-68
2023/10/09 03:42:04;;;;;;;51.40;27.60;;;14.40;99.90;;;;;;5111070;28;20040;-68
2023/10/09 03:44:33;;;;;;;43.40;25.13;;;14.30;99.90;;;;;;5109705;28;20040;-68
2023/10/09 03:46:59;;;;;;;50.65;27.10;;;14.30;99.90;;;;;;5110101;28;20057;-68
2023/10/09 03:49:25;;;;;;;49.30;27.00;;;14.30;99.90;;;;;;5110418;28;20028;-68
2023/10/09 03:51:51;;;;;;;47.95;25.73;;;14.40;99.90;;;;;;5110656;28;20024;-68
2023/10/09 03:54:20;;;;;;;51.67;28.50;;;14.30;99.90;;;;;;5107681;28;20029;-68
2023/10/09 03:56:50;;;;;;;54.67;25.95;;;14.30;99.90;;;;;;5096795;28;20028;-68
2023/10/09 03:59:19;;;;;;;50.08;26.52;;;14.40;99.90;;;;;;5097177;28;20028;-68
2023/10/09 04:01:45;;;;;;;50.88;27.48;;;14.40;99.90;;;;;;5095847;28;20060;-68
2023/10/09 04:04:14;;;;;;;49.65;27.25;;;14.40;99.90;;;;;;5096338;28;20043;-75
2023/10/09 04:06:40;;;;;;;50.47;27.80;;;14.40;99.90;;;;;;5096693;28;20412;-68
2023/10/09 04:09:28;;;;;;;54.47;27.98;;;14.60;99.90;;;;;;5096938;28;20028;-68
2023/10/09 04:12:20;;;;;;;48.97;24.85;;;14.70;99.90;;;;;;5095799;28;20047;-74
2023/10/09 04:14:49;;;;;;;45.45;24.40;;;14.80;99.90;;;;;;5095794;28;20031;-68
2023/10/09 04:23:33;;;;;;;46.60;24.73;;;14.90;99.90;;;;;;5111036;28;20485;-68
2023/10/09 04:25:50;;;;;;;42.17;23.30;;;14.80;99.90;;;;;;5110918;28;20050;-69
2023/10/09 04:30:53;;;;;;;39.53;21.92;;;14.90;99.90;;;;;;5109285;28;20036;-69
2023/10/09 04:33:42;;;;;;;40.13;21.35;;;15.00;99.90;;;;;;5111663;28;20028;-69
2023/10/09 04:36:22;;;;;;;35.08;20.35;;;15.00;99.90;;;;;;5110771;28;20424;-68
2023/10/09 04:39:15;;;;;;;33.33;20.08;;;15.10;99.90;;;;;;5111588;28;20059;-69
2023/10/09 04:41:51;;;;;;;37.45;19.80;;;15.20;99.90;;;;;;5110708;28;20500;-68
2023/10/09 04:44:19;;;;;;;38.40;19.50;;;15.20;99.90;;;;;;5111754;28;20469;-69
2023/10/09 04:47:17;;;;;;;30.02;18.08;;;15.30;99.90;;;;;;5111314;28;20054;-69
2023/10/09 04:49:45;;;;;;;32.83;19.05;;;15.30;99.90;;;;;;5110497;28;20020;-69
2023/10/09 04:52:19;;;;;;;34.05;19.02;;;15.30;99.90;;;;;;5111516;28;20038;-68
2023/10/09 04:55:19;;;;;;;30.40;18.13;;;15.30;99.90;;;;;;5111301;28;20489;-69
2023/10/09 04:57:37;;;;;;;28.00;18.17;;;15.30;99.90;;;;;;5110385;28;20020;-68
2023/10/09 05:00:22;;;;;;;28.50;17.17;;;15.30;99.90;;;;;;5111425;28;20027;-69
2023/10/09 05:02:54;;;;;;;31.73;18.13;;;15.30;99.90;;;;;;5111388;28;20024;-69
2023/10/09 05:05:58;;;;;;;34.80;18.05;;;15.30;99.90;;;;;;5111008;28;20080;-68
2023/10/09 05:08:22;;;;;;;33.58;18.65;;;15.30;99.90;;;;;;5110144;28;20031;-69
2023/10/09 05:16:19;;;;;;;30.83;18.27;;;15.30;99.90;;;;;;5111964;27;20433;-68
2023/10/09 05:18:55;;;;;;;31.70;17.50;;;15.40;99.90;;;;;;5112066;28;20115;-68
2023/10/09 05:24:16;;;;;;;35.40;17.58;;;15.30;99.90;;;;;;5111238;28;20031;-69
2023/10/09 05:32:15;;;;;;;31.85;16.50;;;15.10;99.90;;;;;;5110291;28;20024;-68
2023/10/09 05:37:34;;;;;;;36.00;18.23;;;15.20;99.90;;;;;;5110521;28;20059;-68
2023/10/09 05:42:57;;;;;;;30.77;18.90;;;15.10;99.90;;;;;;5111210;28;20024;-68
2023/10/09 05:48:05;;;;;;;35.97;18.33;;;15.20;99.90;;;;;;5111893;27;20105;-69
2023/10/09 05:50:34;;;;;;;36.55;19.20;;;15.20;99.90;;;;;;5111682;28;20050;-69
2023/10/09 06:03:55;;;;;;;34.22;19.13;;;15.20;99.90;;;;;;5064979;28;20386;-69
2023/10/09 06:06:44;;;;;;;31.17;17.73;;;15.20;99.90;;;;;;5061829;28;20031;-68
2023/10/09 06:09:35;;;;;;;32.90;18.98;;;15.20;99.90;;;;;;5066272;28;20455;-69
2023/10/09 06:16:59;;;;;;;33.03;18.25;;;15.30;99.90;;;;;;5064912;28;20016;-70
2023/10/09 06:19:26;;;;;;;34.15;18.33;;;15.30;99.90;;;;;;5067819;28;20017;-69
2023/10/09 06:24:41;;;;;;;32.03;18.65;;;15.30;99.90;;;;;;5062204;28;20154;-69
2023/10/09 06:32:37;;;;;;;33.42;18.75;;;15.30;99.90;;;;;;5046073;28;21434;-70
2023/10/09 06:35:21;;;;;;;33.25;18.55;;;15.40;99.90;;;;;;5031520;28;20075;-70
2023/10/09 06:38:21;;;;;;;34.72;19.55;;;15.50;99.90;;;;;;5027511;28;20443;-69
2023/10/09 06:43:31;;;;;;;36.53;19.25;;;15.60;99.90;;;;;;5105003;27;20420;-68
2023/10/09 06:45:58;;;;;;;40.25;19.83;;;15.70;99.90;;;;;;5086358;28;20055;-70
2023/10/09 06:48:40;;;;;;;31.80;18.40;;;15.70;99.90;;;;;;5083758;28;20036;-69
2023/10/09 06:59:04;;;;;;;39.75;20.35;;;15.80;99.90;;;;;;5081389;28;20020;-71
2023/10/09 07:01:49;;;;;;;32.92;18.85;;;15.80;99.90;;;;;;5080613;28;20024;-71
2023/10/09 07:04:18;;;;;;;39.45;19.88;;;15.80;99.90;;;;;;5084510;28;20477;-70
2023/10/09 07:17:45;;;;;;;30.63;16.92;;;15.90;99.90;;;;;;5075039;28;20397;-67
2023/10/09 07:25:14;;;;;;;31.42;16.23;;;16.00;99.90;;;;;;5093411;27;20718;-73
2023/10/09 07:27:43;;;;;;;30.45;17.25;;;16.00;99.90;;;;;;5085661;28;20032;-71
2023/10/09 07:30:42;;;;;;;36.95;17.35;;;16.00;99.90;;;;;;5082960;28;20085;-70
2023/10/09 07:38:23;;;;;;;33.53;17.85;;;16.10;99.90;;;;;;5074666;28;20500;-70
2023/10/09 07:40:54;;;;;;;33.25;18.33;;;16.10;99.90;;;;;;5061618;28;20039;-70
2023/10/09 07:43:26;;;;;;;29.77;18.02;;;16.10;99.90;;;;;;5071563;28;20210;-70
2023/10/09 07:48:48;;;;;;;31.00;16.88;;;16.30;99.90;;;;;;5072344;27;20424;-69
2023/10/09 07:51:14;;;;;;;28.38;16.95;;;16.40;99.90;;;;;;5082629;28;20095;-68
2023/10/09 07:53:44;;;;;;;36.38;17.70;;;16.40;99.90;;;;;;5084119;28;20024;-70
2023/10/09 07:56:13;;;;;;;30.73;17.30;;;16.40;99.90;;;;;;5072787;28;20035;-69
2023/10/09 07:58:47;;;;;;;30.92;18.25;;;16.50;99.90;;;;;;5082219;28;20040;-69
2023/10/09 08:01:22;;;;;;;32.88;17.63;;;16.30;99.90;;;;;;5084622;28;20021;-69
2023/10/09 08:03:57;;;;;;;29.77;18.67;;;16.30;99.90;;;;;;5085315;28;20390;-70
2023/10/09 08:06:38;;;;;;;29.50;18.02;;;16.30;99.90;;;;;;5083441;28;20038;-68
2023/10/09 08:17:21;;;;;;;30.90;18.90;;;16.30;99.90;;;;;;5101661;27;20582;-71
2023/10/09 08:19:57;;;;;;;32.63;18.70;;;16.30;99.90;;;;;;5082329;28;20112;-71
2023/10/09 08:24:57;;;;;;;35.13;19.27;;;16.30;99.90;;;;;;5083348;28;20040;-71
2023/10/09 08:30:28;;;;;;;32.63;19.77;;;16.30;99.90;;;;;;5037888;28;20548;-70
2023/10/09 08:33:02;;;;;;;30.95;19.00;;;16.40;99.90;;;;;;5011365;28;20517;-68
2023/10/09 08:35:29;;;;;;;37.10;19.67;;;16.40;99.90;;;;;;5021575;28;20057;-69
2023/10/09 08:37:59;;;;;;;32.45;19.63;;;16.40;99.90;;;;;;5023703;28;20108;-67
2023/10/09 08:40:32;;;;;;;31.83;18.92;;;16.40;99.90;;;;;;5020553;28;20094;-71
2023/10/09 08:43:08;;;;;;;35.15;19.63;;;16.40;99.90;;;;;;5026502;28;20033;-70
2023/10/09 08:45:39;;;;;;;40.45;20.25;;;16.40;99.90;;;;;;5016552;28;20034;-73
2023/10/09 08:48:06;;;;;;;35.00;19.58;;;16.50;99.90;;;;;;5020128;28;20042;-70
2023/10/09 08:50:34;;;;;;;36.05;20.25;;;16.50;99.90;;;;;;5027611;28;20036;-69
2023/10/09 08:53:03;;;;;;;35.08;20.23;;;16.50;99.90;;;;;;5026387;28;20109;-69
2023/10/09 08:55:28;;;;;;;35.35;20.58;;;16.60;99.90;;;;;;5010392;28;20032;-70
2023/10/09 08:57:57;;;;;;;31.85;20.70;;;16.60;99.90;;;;;;5019974;28;20466;-69
2023/10/09 09:00:24;;;;;;;35.78;20.83;;;16.60;99.90;;;;;;5018143;28;20041;-69
2023/10/09 09:02:52;;;;;;;30.30;20.42;;;16.60;99.90;;;;;;5031040;28;20152;-68
2023/10/09 09:05:21;;;;;;;33.75;20.67;;;16.60;99.90;;;;;;5032752;28;20021;-70
2023/10/09 09:07:47;;;;;;;35.33;20.52;;;16.60;99.90;;;;;;5020233;28;20049;-70
2023/10/09 09:10:21;;;;;;;31.45;19.92;;;16.60;99.90;;;;;;5027186;28;20107;-69
2023/10/09 09:13:00;;;;;;;34.28;19.55;;;16.70;99.90;;;;;;5033316;28;20025;-69
2023/10/09 09:15:27;;;;;;;35.85;20.23;;;16.70;99.90;;;;;;5029576;28;20034;-71
2023/10/09 09:18:06;;;;;;;36.17;20.30;;;16.60;99.90;;;;;;5033560;28;20137;-72
2023/10/09 09:20:36;;;;;;;32.38;20.10;;;16.60;99.90;;;;;;5025809;28;20117;-71
2023/10/09 09:23:04;;;;;;;35.75;19.85;;;16.70;99.90;;;;;;5029758;28;20037;-71
2023/10/09 09:25:57;;;;;;;34.15;21.65;;;16.80;99.90;;;;;;5026578;28;20487;-71
2023/10/09 09:28:26;;;;;;;40.05;20.65;;;16.70;99.90;;;;;;5021968;28;20180;-71
2023/10/09 09:30:53;;;;;;;38.00;20.58;;;16.90;99.90;;;;;;5027860;28;20148;-71
2023/10/09 09:33:26;;;;;;;31.75;19.55;;;16.90;99.90;;;;;;5025918;28;20049;-70
2023/10/09 09:36:04;;;;;;;32.38;19.45;;;17.00;99.90;;;;;;5033910;28;20128;-70
2023/10/09 09:38:41;;;;;;;33.25;19.60;;;17.10;99.90;;;;;;5025444;28;20037;-71
2023/10/09 09:41:08;;;;;;;34.90;19.40;;;17.10;99.90;;;;;;5011837;28;20121;-70
2023/10/09 09:43:36;;;;;;;35.60;19.10;;;17.20;99.90;;;;;;5011083;28;20040;-68
2023/10/09 09:46:07;;;;;;;35.30;18.73;;;17.40;99.90;;;;;;5009620;28;20033;-71
2023/10/09 09:48:39;;;;;;;36.63;19.20;;;17.20;99.90;;;;;;5016568;28;20391;-71
2023/10/09 09:51:08;;;;;;;33.13;18.15;;;17.40;99.90;;;;;;5013788;28;20117;-69
2023/10/09 09:53:34;;;;;;;29.10;18.13;;;17.50;99.90;;;;;;5012852;28;20088;-69
2023/10/09 09:56:02;;;;;;;30.63;17.05;;;17.50;99.90;;;;;;5011065;28;20041;-70
2023/10/09 09:58:32;;;;;;;30.13;17.95;;;17.50;99.90;;;;;;5023460;28;20026;-70
2023/10/09 10:01:15;;;;;;;30.65;17.52;;;17.60;99.90;;;;;;5012860;28;20034;-68
2023/10/09 10:03:45;;;;;;;28.65;16.98;;;18.00;99.90;;;;;;5012528;28;20041;-71
2023/10/09 10:06:12;;;;;;;30.52;17.38;;;17.60;99.90;;;;;;5018616;28;20042;-70
2023/10/09 10:08:40;;;;;;;31.48;17.13;;;17.70;99.90;;;;;;5007219;28;20049;-70
2023/10/09 10:11:13;;;;;;;28.98;17.27;;;17.70;99.90;;;;;;5011531;28;20022;-70
2023/10/09 10:21:54;;;;;;;31.60;17.67;;;17.90;99.90;;;;;;5083967;27;20405;-70
2023/10/09 10:24:32;;;;;;;26.23;16.88;;;18.00;99.90;;;;;;5078349;28;20083;-70
2023/10/09 10:27:32;;;;;;;28.75;18.38;;;;;;;;;;5069286;28;20039;-70
2023/10/09 10:30:23;;;;;;;31.40;18.23;;;;;;;;;;5061144;28;20025;-70
2023/10/09 10:32:53;;;;;;;29.85;18.10;;;;;;;;;;5067986;28;20025;-76
2023/10/09 10:35:32;;;;;;;28.75;17.52;;;17.90;99.90;;;;;;5065093;28;20058;-71
2023/10/09 10:38:20;;;;;;;32.97;17.73;;;;;;;;;;5068314;28;20470;-73
2023/10/09 10:40:56;;;;;;;29.30;17.10;;;;;;;;;;5066386;28;20036;-71
2023/10/09 10:43:31;;;;;;;27.98;17.50;;;;;;;;;;5075924;28;20020;-71
2023/10/09 10:46:05;;;;;;;29.02;18.35;;;;;;;;;;5070073;28;20086;-71
2023/10/09 10:48:38;;;;;;;33.67;18.60;;;18.10;99.90;;;;;;5079297;28;20069;-71
2023/10/09 10:51:06;;;;;;;30.42;18.13;;;18.10;99.90;;;;;;5064849;28;20115;-71
2023/10/09 10:53:47;;;;;;;31.73;17.85;;;18.10;99.90;;;;;;5062578;28;20033;-70
2023/10/09 11:02:13;;;;;;;26.65;17.02;;;18.30;99.90;;;;;;5089737;27;20391;-69
2023/10/09 11:07:09;;;;;;;33.17;19.13;;;18.30;99.90;;;;;;5087057;28;20401;-68
2023/10/09 11:10:15;;;;;;;26.35;17.05;;;18.20;99.90;;;;;;5061317;28;20033;-69
2023/10/09 11:15:55;;;;;;;28.65;17.65;;;;;;;;;;5085461;28;20401;-68
2023/10/09 11:18:20;;;;;;;34.22;19.13;;;;;;;;;;5076879;28;20051;-71
2023/10/09 11:21:22;;;;;;;34.97;18.88;;;;;;;;;;5084180;28;20024;-68
2023/10/09 11:23:39;;;;;;;35.08;18.70;;;;;;;;;;5082475;28;20066;-71
2023/10/09 11:26:21;;;;;;;32.67;18.38;;;;;;;;;;5081075;28;20505;-72
2023/10/09 11:29:23;;;;;;;33.33;18.25;;;18.80;99.90;;;;;;5082573;28;20029;-69
2023/10/09 11:32:05;;;;;;;31.70;18.85;;;18.80;99.90;;;;;;5080761;28;20111;-70
2023/10/09 11:34:35;;;;;;;28.42;17.65;;;;;;;;;;5080588;28;20057;-71
2023/10/09 11:37:02;;;;;;;35.97;18.58;;;;;;;;;;5085338;28;20082;-74
2023/10/09 11:39:34;;;;;;;29.80;18.35;;;;;;;;;;5083517;28;20064;-71
2023/10/09 11:42:05;;;;;;;29.73;17.67;;;;;;;;;;5078544;28;20020;-69
2023/10/09 11:44:35;;;;;;;30.58;17.75;;;;;;;;;;5080570;28;20043;-70
2023/10/09 11:47:33;;;;;;;28.50;17.23;;;;;;;;;;5087067;28;20514;-72
2023/10/09 11:49:56;;;;;;;27.25;17.20;;;;;;;;;;5078092;28;20063;-73
2023/10/09 11:52:38;;;;;;;28.20;17.20;;;;;;;;;;5077625;28;20133;-74
2023/10/09 11:55:06;;;;;;;29.05;16.50;;;;;;;;;;5078765;28;20028;-73
2023/10/09 11:57:33;;;;;;;29.65;17.27;;;;;;;;;;5075632;28;20031;-69
2023/10/09 12:00:01;;;;;;;30.98;16.80;;;;;;;;;;5079302;28;20028;-73
2023/10/09 12:02:27;;;;;;;29.30;18.00;;;;;;;;;;5074552;28;20029;-70
2023/10/09 12:04:55;;;;;;;28.70;16.65;;;;;;;;;;5077032;28;20107;-71
2023/10/09 12:07:22;;;;;;;28.42;16.98;;;;;;;;;;5076278;28;20477;-70
2023/10/09 12:09:48;;;;;;;28.23;16.77;;;;;;;;;;5074071;28;20056;-70
2023/10/09 12:12:14;;;;;;;29.98;16.50;;;;;;;;;;5083451;28;20067;-71
2023/10/09 12:14:43;;;;;;;27.13;16.55;;;19.00;99.90;;;;;;5073660;28;20482;-71
2023/10/09 12:17:09;;;;;;;28.77;16.65;;;;;;;;;;5082127;28;20024;-70
2023/10/09 12:19:36;;;;;;;26.67;15.80;;;;;;;;;;5068943;28;20478;-68
2023/10/09 12:22:04;;;;;;;27.13;15.25;;;;;;;;;;5080833;28;20028;-68
2023/10/09 12:24:31;;;;;;;30.77;15.55;;;;;;;;;;5083791;28;20496;-70
2023/10/09 12:26:57;;;;;;;27.17;16.02;;;;;;;;;;5066719;28;20487;-68
2023/10/09 12:29:23;;;;;;;28.75;15.75;;;;;;;;;;5063884;28;20115;-69
2023/10/09 12:31:57;;;;;;;30.45;16.13;;;;;;;;;;5066913;28;20070;-69
2023/10/09 12:34:26;;;;;;;29.23;15.48;;;;;;;;;;5070093;28;20064;-68
2023/10/09 12:36:52;;;;;;;22.35;14.75;;;;;;;;;;5066969;28;20455;-70
2023/10/09 12:39:18;;;;;;;27.95;16.52;;;;;;;;;;5068402;28;20370;-68
2023/10/09 12:41:44;;;;;;;29.65;16.13;;;;;;;;;;5063157;28;20028;-69
2023/10/09 12:44:14;;;;;;;28.77;16.40;;;;;;;;;;5056851;28;20025;-71
2023/10/09 12:46:42;;;;;;;27.10;14.65;;;;;;;;;;5064382;28;20364;-71
2023/10/09 12:49:08;;;;;;;27.80;15.38;;;;;;;;;;5055482;28;20467;-68
2023/10/09 12:51:34;;;;;;;30.40;14.98;;;;;;;;;;5061701;28;20387;-74
2023/10/09 12:54:01;;;;;;;27.33;15.15;;;;;;;;;;5061919;28;20036;-71
2023/10/09 12:56:43;;;;;;;25.58;15.43;;;;;;;;;;5072017;28;20021;-72
2023/10/09 12:59:14;;;;;;;22.90;13.98;;;19.30;99.90;;;;;;5055816;28;20115;-71
2023/10/09 13:01:42;;;;;;;24.88;14.65;;;;;;;;;;5060323;28;20033;-71
2023/10/09 13:04:11;;;;;;;26.00;15.23;;;;;;;;;;5058269;28;20032;-73
2023/10/09 13:06:43;;;;;;;22.98;14.45;;;;;;;;;;5062535;28;20035;-73
2023/10/09 13:09:09;;;;;;;28.05;14.32;;;;;;;;;;5066445;28;20658;-76
2023/10/09 13:11:37;;;;;;;27.38;14.77;;;;;;;;;;5062176;28;20115;-72
2023/10/09 13:14:16;;;;;;;25.67;14.23;;;;;;;;;;5061408;28;20040;-75
2023/10/09 13:16:42;;;;;;;25.65;14.80;;;;;;;;;;5066077;28;20033;-75
2023/10/09 13:19:09;;;;;;;26.85;14.95;;;;;;;;;;5067069;28;20029;-75
2023/10/09 13:21:39;;;;;;;24.08;14.20;;;;;;;;;;5066458;28;20032;-74
2023/10/09 13:24:12;;;;;;;27.02;15.02;;;;;;;;;;5061921;28;20440;-75
2023/10/09 13:26:38;;;;;;;23.90;15.25;;;;;;;;;;5062738;28;20032;-74
2023/10/09 13:29:08;;;;;;;26.60;15.05;;;;;;;;;;5064231;28;20024;-75
2023/10/09 13:31:37;;;;;;;29.75;15.95;;;;;;;;;;5066730;28;20063;-77
2023/10/09 13:34:06;;;;;;;30.55;15.20;;;;;;;;;;5063954;28;20035;-75
2023/10/09 13:36:33;;;;;;;27.42;15.25;;;;;;;;;;5057892;28;20032;-79
2023/10/09 13:39:21;;;;;;;31.20;16.10;;;;;;;;;;5060685;28;20016;-76
2023/10/09 13:41:48;;;;;;;28.92;15.10;;;;;;;;;;5064586;28;20440;-76
2023/10/09 13:44:14;;;;;;;24.80;15.55;;;;;;;;;;5060321;28;20123;-76
2023/10/09 13:46:41;;;;;;;25.88;15.82;;;;;;;;;;5071654;28;20037;-76
2023/10/09 13:49:12;;;;;;;30.95;16.02;;;;;;;;;;5057291;28;20115;-76
2023/10/09 13:51:43;;;;;;;32.92;15.70;;;;;;;;;;5063481;28;20847;-75
2023/10/09 13:54:10;;;;;;;27.77;15.55;;;;;;;;;;5062164;28;20116;-78
2023/10/09 13:56:39;;;;;;;25.20;16.00;;;;;;;;;;5069571;28;20553;-76
2023/10/09 13:59:10;;;;;;;26.83;15.15;;;;;;;;;;5070976;28;20495;-77
2023/10/09 14:01:38;;;;;;;29.17;16.85;;;;;;;;;;5063708;28;20115;-77
2023/10/09 14:04:07;;;;;;;31.75;14.85;;;;;;;;;;5063730;28;20028;-77
2023/10/09 14:06:33;;;;;;;30.52;14.82;;;;;;;;;;5065636;28;20031;-77
2023/10/09 14:09:04;;;;;;;31.73;15.85;;;;;;;;;;5065654;28;20387;-77
2023/10/09 14:11:30;;;;;;;26.15;15.75;;;;;;;;;;5059816;28;20036;-74
2023/10/09 14:13:56;;;;;;;30.75;15.30;;;;;;;;;;5064435;28;20111;-75
2023/10/09 14:16:27;;;;;;;29.08;15.45;;;;;;;;;;5055758;28;20402;-72
2023/10/09 14:18:57;;;;;;;27.48;16.55;;;;;;;;;;5065537;28;20029;-71
2023/10/09 14:21:25;;;;;;;34.85;16.40;;;;;;;;;;5065375;28;20024;-71
2023/10/09 14:23:55;;;;;;;30.50;15.98;;;;;;;;;;5057143;28;20116;-71
2023/10/09 14:26:22;;;;;;;27.70;15.70;;;;;;;;;;5064476;28;20028;-71
2023/10/09 14:28:48;;;;;;;23.75;15.15;;;;;;;;;;5064792;28;20048;-73
2023/10/09 14:31:20;;;;;;;27.88;15.27;;;;;;;;;;5061573;28;20037;-73
2023/10/09 14:33:51;;;;;;;26.92;15.35;;;;;;;;;;5069540;28;20017;-73
2023/10/09 14:36:18;;;;;;;35.00;16.80;;;;;;;;;;5059407;28;20140;-71
2023/10/09 14:38:46;;;;;;;28.27;16.30;;;;;;;;;;5071870;28;20040;-71
2023/10/09 14:41:12;;;;;;;27.55;17.30;;;;;;;;;;5064092;28;20077;-72
2023/10/09 14:43:39;;;;;;;35.80;17.70;;;;;;;;;;5051579;28;20041;-72
2023/10/09 14:46:10;;;;;;;31.42;17.42;;;18.80;99.90;;;;;;5061096;28;20039;-72
2023/10/09 14:48:37;;;;;;;31.17;17.98;;;18.70;99.90;;;;;;5062035;28;20029;-71
2023/10/09 14:51:07;;;;;;;28.65;17.55;;;18.60;99.90;;;;;;5068588;28;20028;-73
2023/10/09 14:53:34;;;;;;;32.15;17.75;;;;;;;;;;5068391;28;20039;-71
2023/10/09 14:56:01;;;;;;;34.45;18.02;;;;;;;;;;5059607;28;20031;-72
2023/10/09 14:58:28;;;;;;;31.20;19.38;;;;;;;;;;5069978;28;20081;-71
2023/10/09 15:00:55;;;;;;;33.83;18.00;;;;;;;;;;5067927;28;20031;-72
2023/10/09 15:03:22;;;;;;;32.97;18.35;;;;;;;;;;5065031;28;20029;-72
2023/10/09 15:05:48;;;;;;;30.73;18.13;;;;;;;;;;5064088;28;20024;-72
2023/10/09 15:08:14;;;;;;;33.47;18.80;;;18.80;99.90;;;;;;5066179;28;20120;-74
2023/10/09 15:10:49;;;;;;;32.80;18.23;;;;;;;;;;5062447;28;20028;-71
2023/10/09 15:13:16;;;;;;;32.78;19.33;;;18.70;99.90;;;;;;5071505;28;20028;-72
2023/10/09 15:15:42;;;;;;;31.63;17.63;;;18.80;99.90;;;;;;5058533;28;20445;-71
2023/10/09 15:18:11;;;;;;;28.48;18.45;;;18.60;99.90;;;;;;5068002;28;20363;-71
2023/10/09 15:20:39;;;;;;;30.88;18.38;;;18.60;99.90;;;;;;5067141;28;20029;-71
2023/10/09 15:23:05;;;;;;;28.17;17.83;;;18.80;99.90;;;;;;5062926;28;20025;-72
2023/10/09 15:25:31;;;;;;;32.65;19.15;;;18.60;99.90;;;;;;5053336;28;20106;-72
2023/10/09 15:27:57;;;;;;;40.33;21.05;;;19.30;99.90;;;;;;5060789;28;20029;-71
2023/10/09 15:30:23;;;;;;;35.75;20.35;;;18.60;99.90;;;;;;5069411;28;20032;-72